This is the latest recevied weather packets stored in our database for station/object HS1AL-1. If no packets are shown the sender has not sent any weather packets the latest 10 day(s).
| Time | Temp. | Humidity | Pressure | Rain* | Wind** | Luminosity | Snow |
|---|---|---|---|---|---|---|---|
| 1777828212 | 37.78° C | 47% | 1007 hPa | - | - | 0 W/m² | - |
| 1777827283 | 37.78° C | 46% | 1007 hPa | - | - | 0 W/m² | - |
| 1777826355 | 37.78° C | 47% | 1007 hPa | - | - | 0 W/m² | - |
| 1777825427 | 37.78° C | 46% | 1007 hPa | - | - | 0 W/m² | - |
| 1777824501 | 38.33° C | 45% | 1007 hPa | - | - | 0 W/m² | - |
| 1777823573 | 38.33° C | 45% | 1007 hPa | - | - | 0 W/m² | - |
| 1777822645 | 38.33° C | 43% | 1007 hPa | - | - | 0 W/m² | - |
| 1777821718 | 38.33° C | 43% | 1007 hPa | - | - | 0 W/m² | - |
| 1777821094 | 38.89° C | 42% | 1007 hPa | - | - | 0 W/m² | - |
| 1777820167 | 38.89° C | 41% | 1006 hPa | - | - | 0 W/m² | - |
| 1777819239 | 38.89° C | 41% | 1006 hPa | - | - | 0 W/m² | - |
| 1777818309 | 39.44° C | 40% | 1006 hPa | - | - | 0 W/m² | - |
| 1777817377 | 38.33° C | 41% | 1006 hPa | - | - | 0 W/m² | - |
| 1777816447 | 38.89° C | 41% | 1006 hPa | - | - | 0 W/m² | - |
| 1777815519 | 40° C | 38% | 1006 hPa | - | - | 0 W/m² | - |
| 1777814587 | 40° C | 37% | 1006 hPa | - | - | 0 W/m² | - |
| 1777813652 | 39.44° C | 38% | 1005 hPa | - | - | 0 W/m² | - |
| 1777812724 | 39.44° C | 37% | 1005 hPa | - | - | 0 W/m² | - |
| 1777811795 | 39.44° C | 37% | 1004 hPa | - | - | 0 W/m² | - |
| 1777810866 | 39.44° C | 36% | 1004 hPa | - | - | 0 W/m² | - |
| 1777809937 | 40° C | 34% | 1004 hPa | - | - | 0 W/m² | - |
| 1777809008 | 40.56° C | 35% | 1004 hPa | - | - | 0 W/m² | - |
| 1777808079 | 40.56° C | 37% | 1004 hPa | - | - | 0 W/m² | - |
| 1777807150 | 40.56° C | 33% | 1003 hPa | - | - | 0 W/m² | - |
| 1777806225 | 41.67° C | 30% | 1003 hPa | - | - | 0 W/m² | - |
* Rain since midnight (hover to see other rain measurements)
** Current wind speed in m/s (hover to see current wind gust speed)